createdAt,value
2022-12-23T00:00:40.936Z,98785.03
2022-12-23T00:01:24.432Z,98792.34
2022-12-23T00:02:06.091Z,98801.28
2022-12-23T00:02:47.949Z,98782.38
2022-12-23T00:03:30.674Z,98754.47
2022-12-23T00:04:12.469Z,98791.13
2022-12-23T00:04:54.155Z,98795.19
2022-12-23T00:05:38.213Z,98791.13
2022-12-23T00:06:21.203Z,98799.06
2022-12-23T00:07:02.826Z,98791.31
2022-12-23T00:07:44.891Z,98788.28
2022-12-23T00:08:27.816Z,98794.59
2022-12-23T00:09:09.415Z,98799.06
2022-12-23T00:09:50.998Z,98792.94
2022-12-23T00:10:35.055Z,98801.91
2022-12-23T00:11:18.975Z,98777.69
2022-12-23T00:12:19.215Z,98789.28
2022-12-23T00:13:19.337Z,98802.72
2022-12-23T00:14:21.954Z,98796.44
2022-12-23T00:15:06.653Z,98767.09
2022-12-23T00:15:48.224Z,98791.72
2022-12-23T00:16:29.874Z,98717.44
2022-12-23T00:17:22.204Z,98791.13
2022-12-23T00:18:04.692Z,98791.13
2022-12-23T00:18:46.265Z,98776.88
2022-12-23T00:19:28.949Z,98771.97
2022-12-23T00:20:14.524Z,98766.91
2022-12-23T00:21:08.614Z,98786.03
2022-12-23T00:21:50.942Z,98704.81
2022-12-23T00:22:51.046Z,98799.28
2022-12-23T00:23:33.929Z,98802.53
2022-12-23T00:24:15.540Z,98793.16
2022-12-23T00:24:57.244Z,98754.91
2022-12-23T00:25:43.898Z,98789.28
2022-12-23T00:26:27.068Z,98792.75
2022-12-23T00:27:08.672Z,98730.06
2022-12-23T00:28:02.563Z,98770.75
2022-12-23T00:28:44.932Z,98785.22
2022-12-23T00:29:26.550Z,98788.88
2022-12-23T00:30:10.338Z,98789.50
2022-12-23T00:30:54.047Z,98784.00
2022-12-23T00:31:38.544Z,98787.06
2022-12-23T00:32:20.207Z,98782.59
2022-12-23T00:33:01.834Z,98788.06
2022-12-23T00:33:45.755Z,98785.00
2022-12-23T00:34:27.356Z,98766.47
2022-12-23T00:35:09.134Z,98784.19
2022-12-23T00:35:51.464Z,98775.22
2022-12-23T00:36:33.176Z,98775.63
2022-12-23T00:37:14.881Z,98763.41
2022-12-23T00:37:56.461Z,98778.91
2022-12-23T00:38:56.528Z,98775.84
2022-12-23T00:40:06.804Z,98763.81
2022-12-23T00:41:09.702Z,98779.31
2022-12-23T00:42:10.168Z,98776.84
2022-12-23T00:42:54.697Z,98774.00
2022-12-23T00:43:36.302Z,98758.94
2022-12-23T00:44:18.041Z,98765.25
2022-12-23T00:45:15.443Z,98781.53
2022-12-23T00:45:57.279Z,98760.78
2022-12-23T00:46:39.029Z,98768.53
2022-12-23T00:48:01.562Z,98760.59
2022-12-23T00:49:04.828Z,98748.78
2022-12-23T00:49:46.454Z,98780.34
2022-12-23T00:50:28.500Z,98783.38
2022-12-23T00:51:10.119Z,98776.47
2022-12-23T00:51:51.813Z,98775.66
2022-12-23T00:52:33.419Z,98781.56
2022-12-23T00:53:15.044Z,98770.75
2022-12-23T00:53:56.657Z,98782.56
2022-12-23T00:54:38.323Z,98782.38
2022-12-23T00:55:22.584Z,98775.03
2022-12-23T00:56:04.349Z,98773.41
2022-12-23T00:56:46.010Z,98790.91
2022-12-23T00:57:27.568Z,98785.03
2022-12-23T00:58:09.124Z,98793.97
2022-12-23T00:58:51.075Z,98797.03
2022-12-23T00:59:33.516Z,98785.63
2022-12-23T01:00:15.526Z,98794.19
2022-12-23T01:01:15.755Z,98795.38
2022-12-23T01:02:15.839Z,98799.47
2022-12-23T01:03:18.774Z,98778.50
2022-12-23T01:04:19.470Z,98769.75
2022-12-23T01:05:19.616Z,98805.78
2022-12-23T01:06:02.523Z,98808.63
2022-12-23T01:06:44.142Z,98813.50
2022-12-23T01:07:27.050Z,98824.91
2022-12-23T01:08:11.564Z,98826.16
2022-12-23T01:08:53.204Z,98847.34
2022-12-23T01:09:34.832Z,98844.31
2022-12-23T01:10:16.521Z,98825.94
2022-12-23T01:11:03.103Z,98838.56
2022-12-23T01:11:44.781Z,98850.22
2022-12-23T01:12:26.464Z,98846.56
2022-12-23T01:13:08.684Z,98820.84
2022-12-23T01:13:50.275Z,98845.91
2022-12-23T01:14:32.164Z,98844.91
2022-12-23T01:15:13.894Z,98848.16
2022-12-23T01:16:16.750Z,98859.16
2022-12-23T01:16:59.134Z,98854.88
2022-12-23T01:17:40.784Z,98862.81
2022-12-23T01:18:22.340Z,98856.69
2022-12-23T01:19:05.013Z,98858.75
2022-12-23T01:19:46.646Z,98844.09
2022-12-23T01:20:28.265Z,98814.53
2022-12-23T01:21:10.671Z,98845.94
2022-12-23T01:21:52.254Z,98861.81
2022-12-23T01:22:34.030Z,98862.81
2022-12-23T01:23:15.586Z,98876.06
2022-12-23T01:23:57.177Z,98857.31
2022-12-23T01:24:38.729Z,98874.63
2022-12-23T01:25:23.140Z,98874.03
2022-12-23T01:26:06.660Z,98847.56
2022-12-23T01:26:48.548Z,98825.34
2022-12-23T01:27:30.122Z,98878.31
2022-12-23T01:28:11.725Z,98827.78
2022-12-23T01:28:57.893Z,98876.28
2022-12-23T01:29:39.457Z,98849.78
2022-12-23T01:30:21.070Z,98878.09
2022-12-23T01:31:05.136Z,98890.50
2022-12-23T01:31:46.768Z,98850.00
2022-12-23T01:32:28.403Z,98831.84
2022-12-23T01:33:09.973Z,98832.84
2022-12-23T01:33:51.937Z,98881.97
2022-12-23T01:34:37.227Z,98875.88
2022-12-23T01:35:19.358Z,98824.53
2022-12-23T01:36:03.073Z,98890.50
2022-12-23T01:36:44.732Z,98901.13
2022-12-23T01:37:26.456Z,98903.56
2022-12-23T01:38:08.199Z,98884.19
2022-12-23T01:38:50.287Z,98826.97
2022-12-23T01:39:32.109Z,98876.06
2022-12-23T01:40:13.741Z,98902.97
2022-12-23T01:40:56.235Z,98900.50
2022-12-23T01:41:56.278Z,98872.81
2022-12-23T01:42:43.617Z,98883.19
2022-12-23T01:43:50.655Z,98890.53
2022-12-23T01:44:49.857Z,98910.50
2022-12-23T01:45:33.119Z,98912.13
2022-12-23T01:46:16.881Z,98906.03
2022-12-23T01:46:58.580Z,98901.94
2022-12-23T01:47:48.745Z,98914.16
2022-12-23T01:48:30.419Z,98909.06
2022-12-23T01:49:12.229Z,98916.00
2022-12-23T01:50:02.889Z,98920.50
2022-12-23T01:50:56.163Z,98917.84
2022-12-23T01:51:37.886Z,98915.59
2022-12-23T01:52:19.836Z,98907.47
2022-12-23T01:53:17.464Z,98918.03
2022-12-23T01:54:01.712Z,98927.19
2022-12-23T01:54:44.095Z,98913.75
2022-12-23T01:55:29.081Z,98940.44
2022-12-23T01:56:17.183Z,98939.63
2022-12-23T01:56:59.036Z,98951.25
2022-12-23T01:57:44.777Z,98935.78
2022-12-23T01:58:50.443Z,98962.47
2022-12-23T01:59:50.860Z,98930.69
2022-12-23T02:00:51.030Z,98971.66
2022-12-23T02:01:51.633Z,98965.34
2022-12-23T02:02:54.760Z,98940.28
2022-12-23T02:03:43.016Z,98957.59
2022-12-23T02:04:25.831Z,98961.66
2022-12-23T02:05:08.370Z,98953.09
2022-12-23T02:05:51.340Z,98962.69
2022-12-23T02:06:58.116Z,98974.91
2022-12-23T02:07:58.803Z,98963.91
2022-12-23T02:09:12.481Z,98961.88
2022-12-23T02:09:54.171Z,98957.38
2022-12-23T02:11:31.387Z,98915.34
2022-12-23T02:12:41.645Z,98904.34
2022-12-23T02:14:10.477Z,98887.44
2022-12-23T02:15:39.842Z,98896.59
2022-12-23T02:16:21.606Z,98885.81
2022-12-23T02:17:17.733Z,98898.44
2022-12-23T02:18:25.168Z,98910.88
2022-12-23T02:19:45.207Z,98900.69
2022-12-23T02:21:11.252Z,98899.88
2022-12-23T02:22:20.791Z,98897.00
2022-12-23T02:23:35.323Z,98903.53
2022-12-23T02:24:58.402Z,98906.34
2022-12-23T02:25:51.909Z,98911.25
2022-12-23T02:27:13.487Z,98913.50
2022-12-23T02:28:12.675Z,98918.81
2022-12-23T02:29:19.577Z,98915.13
2022-12-23T02:30:22.978Z,98919.41
2022-12-23T02:31:14.496Z,98920.44
2022-12-23T02:32:11.322Z,98911.03
2022-12-23T02:33:05.211Z,98918.97
2022-12-23T02:34:00.780Z,98912.84
2022-12-23T02:35:11.142Z,98906.53
2022-12-23T02:36:04.793Z,98912.66
2022-12-23T02:36:59.886Z,98910.25
2022-12-23T02:37:58.079Z,98910.84
2022-12-23T02:38:47.356Z,98920.19
2022-12-23T02:39:40.580Z,98912.84
2022-12-23T02:40:35.731Z,98905.75
2022-12-23T02:41:30.281Z,98914.53
2022-12-23T02:42:17.183Z,98920.41
2022-12-23T02:43:48.145Z,98919.56
2022-12-23T02:44:32.585Z,98925.06
2022-12-23T02:45:18.639Z,98920.56
2022-12-23T02:46:16.041Z,98923.44
2022-12-23T02:47:08.419Z,98918.94
2022-12-23T02:47:54.996Z,98923.44
2022-12-23T02:48:46.912Z,98924.03
2022-12-23T02:49:40.323Z,98907.56
2022-12-23T02:50:29.760Z,98924.03
2022-12-23T02:51:14.472Z,98900.63
2022-12-23T02:51:59.472Z,98918.53
2022-12-23T02:52:42.659Z,98921.19
2022-12-23T02:53:37.288Z,98919.34
2022-12-23T02:54:25.054Z,98851.75
2022-12-23T02:55:13.192Z,98920.78
2022-12-23T02:55:57.086Z,98924.25
2022-12-23T02:56:42.971Z,98922.81
2022-12-23T02:57:30.574Z,98928.31
2022-12-23T02:58:14.864Z,98926.06
2022-12-23T02:59:02.536Z,98903.47
2022-12-23T02:59:48.948Z,98922.78
2022-12-23T03:00:31.007Z,98929.50
2022-12-23T03:01:15.852Z,98926.66
2022-12-23T03:01:58.664Z,98932.97
2022-12-23T03:02:41.837Z,98931.16
2022-12-23T03:03:24.813Z,98904.06
2022-12-23T03:04:06.871Z,98926.66
2022-12-23T03:04:48.723Z,98929.94
2022-12-23T03:05:41.086Z,98933.78
2022-12-23T03:06:27.204Z,98906.91
2022-12-23T03:07:20.572Z,98914.44
2022-12-23T03:08:06.477Z,98938.50
2022-12-23T03:08:52.257Z,98926.25
2022-12-23T03:09:58.740Z,98939.09
2022-12-23T03:10:53.109Z,98927.28
2022-12-23T03:11:45.780Z,98945.22
2022-12-23T03:12:32.846Z,98936.44
2022-12-23T03:13:29.709Z,98934.59
2022-12-23T03:14:17.070Z,98942.13
2022-12-23T03:15:07.293Z,98941.09
2022-12-23T03:16:10.484Z,98947.03
2022-12-23T03:16:57.728Z,98941.72
2022-12-23T03:17:42.297Z,98944.38
2022-12-23T03:18:26.634Z,98953.34
2022-12-23T03:19:34.836Z,98957.63
2022-12-23T03:20:36.587Z,98942.53
2022-12-23T03:21:33.615Z,98952.94
2022-12-23T03:22:23.771Z,98951.91
2022-12-23T03:23:18.713Z,98957.22
2022-12-23T03:24:14.951Z,98949.06
2022-12-23T03:25:21.154Z,98951.09
2022-12-23T03:26:11.774Z,98945.59
2022-12-23T03:27:16.708Z,98946.19
2022-12-23T03:28:06.986Z,98946.41
2022-12-23T03:29:01.089Z,98938.84
2022-12-23T03:29:51.839Z,98957.63
2022-12-23T03:30:35.528Z,98963.13
2022-12-23T03:31:29.902Z,98946.25
2022-12-23T03:32:14.393Z,98944.16
2022-12-23T03:33:02.012Z,98919.75
2022-12-23T03:33:48.500Z,98944.00
2022-12-23T03:34:36.174Z,98958.84
2022-12-23T03:35:30.949Z,98955.22
2022-12-23T03:36:22.183Z,98968.25
2022-12-23T03:37:07.960Z,98961.06
2022-12-23T03:37:54.376Z,98969.84
2022-12-23T03:38:39.315Z,98923.44
2022-12-23T03:39:26.838Z,98971.09
2022-12-23T03:40:23.635Z,98965.78
2022-12-23T03:41:12.868Z,98973.75
2022-12-23T03:42:00.819Z,98970.28
2022-12-23T03:42:47.234Z,98957.22
2022-12-23T03:43:33.378Z,98969.66
2022-12-23T03:44:21.263Z,98967.03
2022-12-23T03:45:37.027Z,98938.94
2022-12-23T03:46:35.494Z,98959.66
2022-12-23T03:47:24.701Z,98977.81
2022-12-23T03:48:13.519Z,98960.09
2022-12-23T03:49:01.378Z,98976.63
2022-12-23T03:49:47.896Z,98985.38
2022-12-23T03:50:30.819Z,98979.72
2022-12-23T03:51:20.241Z,98980.28
2022-12-23T03:52:07.409Z,98994.16
2022-12-23T03:53:04.486Z,98976.41
2022-12-23T03:53:54.650Z,98977.88
2022-12-23T03:54:43.678Z,98989.88
2022-12-23T03:55:30.833Z,98981.09
2022-12-23T03:56:18.772Z,98985.78
2022-12-23T03:57:05.374Z,98982.72
2022-12-23T03:58:14.225Z,98995.97
2022-12-23T03:59:00.651Z,99009.03
2022-12-23T03:59:50.505Z,99011.06
2022-12-23T04:00:38.275Z,98998.22
2022-12-23T04:01:44.438Z,99006.59
2022-12-23T04:02:47.302Z,99011.06
2022-12-23T04:03:42.828Z,99005.56
2022-12-23T04:04:37.959Z,99009.44
2022-12-23T04:05:23.866Z,98996.00
2022-12-23T04:06:14.165Z,99002.31
2022-12-23T04:07:06.141Z,98998.22
2022-12-23T04:07:51.820Z,99008.22
2022-12-23T04:08:36.751Z,99014.34
2022-12-23T04:09:23.017Z,99003.34
2022-12-23T04:10:05.760Z,98996.41
2022-12-23T04:10:49.819Z,99001.50
2022-12-23T04:11:33.230Z,99009.84
2022-12-23T04:12:15.355Z,99006.41
2022-12-23T04:12:59.765Z,98964.03
2022-12-23T04:13:41.491Z,99002.94
2022-12-23T04:14:23.217Z,99016.38
2022-12-23T04:15:12.840Z,99026.38
2022-12-23T04:15:57.188Z,99021.28
2022-12-23T04:16:43.099Z,99027.41
2022-12-23T04:17:24.757Z,99032.72
2022-12-23T04:18:07.113Z,99037.19
2022-12-23T04:18:51.759Z,99029.03
2022-12-23T04:19:33.402Z,99027.81
2022-12-23T04:20:15.173Z,99032.31
2022-12-23T04:20:56.846Z,99032.69
2022-12-23T04:21:38.756Z,99028.63
2022-12-23T04:22:20.464Z,99034.31
2022-12-23T04:23:02.591Z,99032.69
2022-12-23T04:23:44.163Z,99031.84
2022-12-23T04:24:25.756Z,99028.59
2022-12-23T04:25:07.693Z,98973.38
2022-12-23T04:25:51.900Z,99014.72
2022-12-23T04:26:33.471Z,99036.34
2022-12-23T04:27:15.937Z,99030.63
2022-12-23T04:27:57.511Z,99038.59
2022-12-23T04:28:39.124Z,99010.03
2022-12-23T04:29:20.745Z,99018.38
2022-12-23T04:30:02.379Z,99014.53
2022-12-23T04:30:45.796Z,99024.91
2022-12-23T04:31:30.659Z,99027.75
2022-12-23T04:32:12.298Z,99017.97
2022-12-23T04:32:53.921Z,99020.41
2022-12-23T04:33:37.324Z,99031.84
2022-12-23T04:34:23.713Z,99015.31
2022-12-23T04:35:05.792Z,99012.47
2022-12-23T04:35:47.405Z,99018.78
2022-12-23T04:36:31.817Z,99011.03
2022-12-23T04:37:14.828Z,99031.84
2022-12-23T04:37:56.472Z,99014.50
2022-12-23T04:38:38.130Z,99032.88
2022-12-23T04:39:19.733Z,99015.31
2022-12-23T04:40:01.342Z,99026.13
2022-12-23T04:40:47.092Z,99036.75
2022-12-23T04:41:29.894Z,99031.22
2022-12-23T04:42:11.460Z,99043.28
2022-12-23T04:42:53.062Z,99038.56
2022-12-23T04:43:34.727Z,99041.81
2022-12-23T04:44:16.510Z,99046.34
2022-12-23T04:44:58.299Z,99028.97
2022-12-23T04:45:39.906Z,99046.91
2022-12-23T04:46:21.590Z,99042.06
2022-12-23T04:47:06.094Z,99006.38
2022-12-23T04:47:47.835Z,99041.25
2022-12-23T04:48:32.349Z,99029.00
2022-12-23T04:49:18.688Z,99024.34
2022-12-23T04:50:02.957Z,99040.84
2022-12-23T04:50:45.069Z,98994.00
2022-12-23T04:51:26.818Z,99039.41
2022-12-23T04:52:08.457Z,99033.69
2022-12-23T04:52:50.134Z,99039.63
2022-12-23T04:53:31.741Z,99040.66
2022-12-23T04:54:13.481Z,99055.16
2022-12-23T04:54:58.203Z,99045.56
2022-12-23T04:55:39.851Z,99022.53
2022-12-23T04:56:21.522Z,98922.91
2022-12-23T04:57:06.687Z,99042.75
2022-12-23T04:57:48.420Z,99039.06
2022-12-23T04:58:30.082Z,99040.06
2022-12-23T04:59:11.825Z,99056.34
2022-12-23T04:59:58.552Z,99057.38
2022-12-23T05:00:40.332Z,99036.81
2022-12-23T05:01:22.106Z,99050.25
2022-12-23T05:02:04.012Z,99045.97
2022-12-23T05:02:45.847Z,99041.50
2022-12-23T05:03:30.622Z,99030.50
2022-12-23T05:04:19.101Z,98997.06
2022-12-23T05:05:00.755Z,99044.75
2022-12-23T05:05:45.223Z,99058.03
2022-12-23T05:06:27.316Z,99045.78
2022-12-23T05:07:08.988Z,99038.84
2022-12-23T05:07:50.987Z,98996.25
2022-12-23T05:08:33.071Z,99055.16
2022-12-23T05:09:14.701Z,99048.03
2022-12-23T05:10:01.500Z,98989.72
2022-12-23T05:10:45.205Z,99032.31
2022-12-23T05:11:27.011Z,99043.13
2022-12-23T05:12:08.701Z,99038.84
2022-12-23T05:12:50.281Z,99048.84
2022-12-23T05:13:31.966Z,99044.97
2022-12-23T05:14:13.608Z,99044.97
2022-12-23T05:14:55.453Z,99022.34
2022-12-23T05:15:37.067Z,99045.56
2022-12-23T05:16:19.090Z,99051.09
2022-12-23T05:17:05.395Z,99052.72
2022-12-23T05:17:49.097Z,99059.66
2022-12-23T05:18:30.670Z,99052.28
2022-12-23T05:19:12.280Z,99035.97
2022-12-23T05:19:53.848Z,99060.66
2022-12-23T05:20:35.556Z,99046.75
2022-12-23T05:21:17.661Z,99050.63
2022-12-23T05:21:59.275Z,99051.66
2022-12-23T05:22:40.861Z,99039.81
2022-12-23T05:23:22.602Z,99019.69
2022-12-23T05:24:04.356Z,99050.63
2022-12-23T05:24:48.793Z,99032.50
2022-12-23T05:25:34.968Z,99039.81
2022-12-23T05:26:18.095Z,99056.16
2022-12-23T05:27:00.558Z,99052.28
2022-12-23T05:27:42.369Z,99057.16
2022-12-23T05:28:24.082Z,99040.22
2022-12-23T05:29:06.121Z,99047.56
2022-12-23T05:29:50.657Z,99057.59
2022-12-23T05:30:32.307Z,99051.06
2022-12-23T05:31:15.035Z,99038.38
2022-12-23T05:31:56.749Z,99040.44
2022-12-23T05:32:42.326Z,99046.34
2022-12-23T05:33:23.932Z,99043.28
2022-12-23T05:34:06.811Z,99057.59
2022-12-23T05:34:48.674Z,99040.63
2022-12-23T05:35:30.287Z,99047.56
2022-12-23T05:36:12.361Z,99051.88
2022-12-23T05:36:53.977Z,99047.56
2022-12-23T05:37:35.625Z,99044.91
2022-12-23T05:38:18.047Z,99065.34
2022-12-23T05:38:59.675Z,99058.41
2022-12-23T05:39:41.309Z,99070.25
2022-12-23T05:40:23.713Z,99024.53
2022-12-23T05:41:06.507Z,99050.44
2022-12-23T05:41:48.129Z,99065.34
2022-12-23T05:42:29.824Z,99057.38
2022-12-23T05:43:11.436Z,99058.59
2022-12-23T05:43:53.077Z,99061.06
2022-12-23T05:44:34.687Z,99041.44
2022-12-23T05:45:16.352Z,99056.75
2022-12-23T05:45:58.131Z,99059.81
2022-12-23T05:46:39.948Z,99063.09
2022-12-23T05:47:21.656Z,99049.00
2022-12-23T05:48:03.547Z,99070.84
2022-12-23T05:48:45.207Z,99056.34
2022-12-23T05:49:26.827Z,99049.03
2022-12-23T05:50:09.026Z,99056.16
2022-12-23T05:50:51.886Z,99027.19
2022-12-23T05:51:33.546Z,99029.81
2022-12-23T05:52:15.157Z,99015.16
2022-12-23T05:52:57.712Z,99047.16
2022-12-23T05:53:39.391Z,99000.88
2022-12-23T05:54:21.009Z,99045.72
2022-12-23T05:55:02.601Z,99025.72
2022-12-23T05:55:44.343Z,99046.53
2022-12-23T05:56:25.937Z,99045.28
2022-12-23T05:57:07.557Z,99041.03
2022-12-23T05:57:49.167Z,99058.75
2022-12-23T05:58:30.797Z,99048.78
2022-12-23T05:59:12.446Z,99053.63
2022-12-23T05:59:54.397Z,99050.78
2022-12-23T06:00:36.116Z,99061.16
2022-12-23T06:01:17.686Z,99052.63
2022-12-23T06:01:59.571Z,99054.84
2022-12-23T06:02:41.527Z,99065.44
2022-12-23T06:03:23.444Z,99058.31
2022-12-23T06:04:05.247Z,99055.22
2022-12-23T06:04:47.041Z,99049.34
2022-12-23T06:05:28.786Z,99049.72
2022-12-23T06:06:10.414Z,99021.63
2022-12-23T06:06:51.972Z,99047.50
2022-12-23T06:07:33.647Z,99046.09
2022-12-23T06:08:15.352Z,99059.38
2022-12-23T06:08:59.833Z,99040.59
2022-12-23T06:09:41.952Z,99042.63
2022-12-23T06:10:23.531Z,99046.09
2022-12-23T06:11:05.837Z,99045.28
2022-12-23T06:11:47.654Z,99034.09
2022-12-23T06:12:29.277Z,99041.03
2022-12-23T06:13:10.884Z,99050.78
2022-12-23T06:13:52.645Z,99036.09
2022-12-23T06:14:34.304Z,99049.75
2022-12-23T06:15:15.997Z,99029.78
2022-12-23T06:15:57.620Z,99029.38
2022-12-23T06:16:39.261Z,99031.44
2022-12-23T06:17:23.892Z,99054.47
2022-12-23T06:18:05.617Z,99033.47
2022-12-23T06:18:56.002Z,99017.75
2022-12-23T06:19:40.371Z,99033.91
2022-12-23T06:20:21.951Z,98974.16
2022-12-23T06:21:03.858Z,99023.09
2022-12-23T06:21:45.578Z,99043.91
2022-12-23T06:22:27.290Z,99034.72
2022-12-23T06:23:08.982Z,99021.69
2022-12-23T06:23:50.849Z,99035.53
2022-12-23T06:24:32.405Z,99022.91
2022-12-23T06:25:14.089Z,99041.25
2022-12-23T06:26:03.084Z,99036.34
2022-12-23T06:26:44.805Z,99033.53
2022-12-23T06:27:26.457Z,99042.72
2022-12-23T06:28:08.119Z,99036.19
2022-12-23T06:28:49.849Z,99028.66
2022-12-23T06:29:31.442Z,99023.16
2022-12-23T06:30:14.291Z,99028.88
2022-12-23T06:30:57.238Z,99033.56
2022-12-23T06:31:38.870Z,99042.94
2022-12-23T06:32:20.655Z,99027.84
2022-12-23T06:33:02.321Z,99041.31
2022-12-23T06:33:44.103Z,99024.81
2022-12-23T06:34:25.665Z,99030.94
2022-12-23T06:35:08.612Z,99036.00
2022-12-23T06:35:50.694Z,99006.84
2022-12-23T06:36:32.253Z,99046.41
2022-12-23T06:37:13.884Z,99049.06
2022-12-23T06:37:55.436Z,99031.13
2022-12-23T06:38:37.214Z,99042.94
2022-12-23T06:39:18.781Z,99038.66
2022-12-23T06:40:00.580Z,99024.00
2022-12-23T06:40:42.241Z,99018.69
2022-12-23T06:41:23.899Z,99038.03
2022-12-23T06:42:05.506Z,99051.09
2022-12-23T06:42:47.390Z,99048.22
2022-12-23T06:43:28.952Z,99046.38
2022-12-23T06:44:10.588Z,99055.97
2022-12-23T06:44:52.209Z,99035.81
2022-12-23T06:45:36.159Z,99051.91
2022-12-23T06:46:17.872Z,99012.97
2022-12-23T06:46:59.578Z,99047.44
2022-12-23T06:47:44.578Z,99047.03
2022-12-23T06:48:26.179Z,99031.97
2022-12-23T06:49:13.048Z,99051.34
2022-12-23T06:49:55.447Z,99040.72
2022-12-23T06:50:37.132Z,98979.34
2022-12-23T06:51:19.142Z,99028.47
2022-12-23T06:52:00.806Z,99041.13
2022-12-23T06:52:42.441Z,99045.00
2022-12-23T06:53:24.035Z,99052.34
2022-12-23T06:54:05.698Z,99011.38
2022-12-23T06:54:47.305Z,99045.84
2022-12-23T06:55:28.925Z,99041.56
2022-12-23T06:56:10.530Z,99042.78
2022-12-23T06:56:52.119Z,99032.81
2022-12-23T06:57:33.796Z,99047.69
2022-12-23T06:58:15.512Z,99035.84
2022-12-23T06:58:57.146Z,99020.56
2022-12-23T06:59:38.764Z,99053.81
2022-12-23T07:00:20.657Z,99054.63
2022-12-23T07:01:02.279Z,99055.66
2022-12-23T07:01:44.003Z,99051.38
2022-12-23T07:02:28.211Z,99034.84
2022-12-23T07:03:09.916Z,99060.16
2022-12-23T07:03:51.644Z,99045.25
2022-12-23T07:04:33.336Z,99061.16
2022-12-23T07:05:15.051Z,99032.38
2022-12-23T07:05:56.695Z,99034.63
2022-12-23T07:06:39.519Z,99037.69
2022-12-23T07:07:21.408Z,99051.75
2022-12-23T07:08:03.113Z,99058.69
2022-12-23T07:08:47.202Z,99053.41
2022-12-23T07:09:31.125Z,99063.81
2022-12-23T07:10:12.724Z,99054.00
2022-12-23T07:11:01.182Z,99007.31
2022-12-23T07:11:42.831Z,99059.31
2022-12-23T07:12:27.653Z,99066.25
2022-12-23T07:13:09.498Z,99068.28
2022-12-23T07:13:51.092Z,99079.28
2022-12-23T07:14:32.660Z,99065.00
2022-12-23T07:15:14.308Z,99047.06
2022-12-23T07:15:56.039Z,99061.97
2022-12-23T07:16:37.713Z,99010.97
2022-12-23T07:17:19.397Z,99052.38
2022-12-23T07:18:01.029Z,99074.38
2022-12-23T07:18:42.723Z,99067.66
2022-12-23T07:19:24.386Z,99057.66
2022-12-23T07:20:07.000Z,99066.44
2022-12-23T07:20:49.307Z,99060.50
2022-12-23T07:21:30.901Z,99063.53
2022-12-23T07:22:12.564Z,99068.84
2022-12-23T07:22:55.608Z,99065.38
2022-12-23T07:23:37.216Z,99048.63
2022-12-23T07:24:18.874Z,99068.84
2022-12-23T07:25:00.517Z,99057.22
2022-12-23T07:25:42.169Z,99068.19
2022-12-23T07:26:23.842Z,99076.78
2022-12-23T07:27:05.454Z,99067.59
2022-12-23T07:27:47.060Z,99072.50
2022-12-23T07:28:28.676Z,99064.31
2022-12-23T07:29:10.318Z,99050.88
2022-12-23T07:29:51.938Z,99062.91
2022-12-23T07:30:33.586Z,99043.13
2022-12-23T07:31:15.583Z,99051.47
2022-12-23T07:31:57.248Z,99056.16
2022-12-23T07:32:39.201Z,99030.25
2022-12-23T07:33:20.837Z,99052.50
2022-12-23T07:34:02.536Z,99037.59
2022-12-23T07:34:46.958Z,99043.91
2022-12-23T07:35:29.154Z,99050.44
2022-12-23T07:36:10.836Z,99028.03
2022-12-23T07:36:52.576Z,99045.38
2022-12-23T07:37:34.149Z,99021.06
2022-12-23T07:38:15.807Z,99054.16
2022-12-23T07:38:57.857Z,99046.97
2022-12-23T07:39:39.529Z,99037.16
2022-12-23T07:40:25.079Z,99000.94
2022-12-23T07:41:06.697Z,99035.94
2022-12-23T07:41:48.312Z,99054.53
2022-12-23T07:42:46.820Z,99048.81
2022-12-23T07:43:28.846Z,99043.28
2022-12-23T07:44:10.424Z,99039.81
2022-12-23T07:44:52.029Z,98978.91
2022-12-23T07:45:33.725Z,99019.66
2022-12-23T07:46:15.421Z,99039.63
2022-12-23T07:46:57.164Z,99034.91
2022-12-23T07:47:38.757Z,99036.34
2022-12-23T07:48:20.451Z,99022.47
2022-12-23T07:49:02.042Z,99043.91
2022-12-23T07:49:43.655Z,99042.47
2022-12-23T07:50:26.432Z,99048.59
2022-12-23T07:51:08.272Z,99050.22
2022-12-23T07:51:50.003Z,98969.72
2022-12-23T07:52:31.615Z,99039.81
2022-12-23T07:53:13.318Z,99062.47
2022-12-23T07:53:54.930Z,99085.75
2022-12-23T07:54:36.560Z,99073.91
2022-12-23T07:55:18.947Z,99086.16
2022-12-23T07:56:00.622Z,99008.66
2022-12-23T07:56:42.254Z,99086.56
2022-12-23T07:57:24.313Z,99074.94
2022-12-23T07:58:05.957Z,99044.56
2022-12-23T07:58:52.874Z,99046.16
2022-12-23T07:59:34.520Z,99065.34
2022-12-23T08:00:16.672Z,99043.69
2022-12-23T08:01:03.987Z,99084.91
2022-12-23T08:01:45.689Z,99081.63
2022-12-23T08:02:27.553Z,99078.78
2022-12-23T08:03:11.826Z,99065.53
2022-12-23T08:03:53.977Z,99073.47
2022-12-23T08:04:38.421Z,99076.94
2022-12-23T08:05:24.316Z,99084.03
2022-12-23T08:06:08.373Z,99016.34
2022-12-23T08:06:49.989Z,99083.81
2022-12-23T08:07:31.563Z,99076.44
2022-12-23T08:08:13.285Z,99076.03
2022-12-23T08:08:54.916Z,99075.41
2022-12-23T08:09:36.503Z,99071.06
2022-12-23T08:10:18.170Z,99070.03
2022-12-23T08:11:03.358Z,99070.25
2022-12-23T08:11:45.828Z,98994.25
2022-12-23T08:12:27.540Z,99057.81
2022-12-23T08:13:09.120Z,99054.53
2022-12-23T08:13:52.690Z,99064.34
2022-12-23T08:14:34.280Z,99058.44
2022-12-23T08:15:15.871Z,99037.41
2022-12-23T08:15:59.460Z,99063.09
2022-12-23T08:16:43.974Z,99055.13
2022-12-23T08:17:27.507Z,99041.25
2022-12-23T08:18:09.174Z,99057.22
2022-12-23T08:18:50.954Z,99048.00
2022-12-23T08:19:32.561Z,99046.13
2022-12-23T08:20:14.298Z,99053.28
2022-12-23T08:21:08.365Z,99029.41
2022-12-23T08:21:49.985Z,99025.97
2022-12-23T08:22:32.072Z,99025.19
2022-12-23T08:23:13.619Z,99044.97
2022-12-23T08:23:55.314Z,99045.53
2022-12-23T08:24:37.014Z,99030.88
2022-12-23T08:25:18.744Z,99045.53
2022-12-23T08:26:08.008Z,99045.97
2022-12-23T08:26:49.675Z,99038.22
2022-12-23T08:27:31.326Z,99042.50
2022-12-23T08:28:13.081Z,99052.50
2022-12-23T08:28:54.668Z,99051.69
2022-12-23T08:29:36.810Z,99043.94
2022-12-23T08:30:18.573Z,99037.84
2022-12-23T08:31:10.517Z,99042.09
2022-12-23T08:31:54.014Z,99047.19
2022-12-23T08:32:35.672Z,99047.38
2022-12-23T08:33:17.297Z,99020.91
2022-12-23T08:34:00.899Z,99041.06
2022-12-23T08:34:42.482Z,99064.28
2022-12-23T08:35:24.132Z,99040.00
2022-12-23T08:36:07.998Z,99055.66
2022-12-23T08:36:49.602Z,99058.09
2022-12-23T08:37:31.195Z,99054.41
2022-12-23T08:38:12.835Z,99034.44
2022-12-23T08:38:57.211Z,99056.88
2022-12-23T08:39:38.832Z,99059.69
2022-12-23T08:40:25.715Z,99061.72
2022-12-23T08:41:12.647Z,99053.09
2022-12-23T08:41:54.683Z,99027.63
2022-12-23T08:42:36.281Z,99049.16
2022-12-23T08:43:17.846Z,99059.50
2022-12-23T08:43:59.770Z,99046.59
2022-12-23T08:44:41.374Z,99048.03
2022-12-23T08:45:22.978Z,99051.72
2022-12-23T08:46:05.048Z,99053.50
2022-12-23T08:46:46.959Z,99069.84
2022-12-23T08:47:28.612Z,99061.88
2022-12-23T08:48:10.292Z,99055.31
2022-12-23T08:48:52.909Z,99034.53
2022-12-23T08:49:34.759Z,99052.66
2022-12-23T08:50:16.496Z,99051.22
2022-12-23T08:51:05.019Z,99049.97
2022-12-23T08:51:47.038Z,99056.16
2022-12-23T08:52:28.684Z,99058.38
2022-12-23T08:53:11.282Z,99048.78
2022-12-23T08:54:00.476Z,99066.69
2022-12-23T08:54:43.093Z,99047.72
2022-12-23T08:55:24.733Z,99063.47